ENSGENFL

Guest
Details From ENSG - SOGNDAL Haukasen
To ENFL - FLORO
Flight Number -
Tags generated
Created
Modified
Stats Distance 66 nm / 122 km
Max Altitude 0 ft / 0 m
Waypoints 3
Social Downloads 2
Likes 0
Share VATSIM

Download

Looking for another format? Having issues loading an existing format? Contact us
Advertisement - Login to hide

Notes

Basic altitude profile: - Ascent Rate: 2500ft/min - Ascent Speed: 250kts - Cruise Altitude: 35000ft - Cruise Speed: 420kts - Descent Rate: 1500ft/min - Descent Speed: 250kts

Route

ENSG FLO ENFL

ID Type Via Altitude Latitude Longitude Leg Dist Tot Dist Heading (true) Name
O ENSG APT - 0 ft / 0 m 61.15579˚ 7.13628˚ - 0 nm - SOGNDAL Haukasen
FLO VOR - 0 ft / 0 m 61.58156˚ 5.02018˚ 66 nm 66 nm 294° / 292° FLORO VOR-DME
O ENFL APT - 0 ft / 0 m 61.58265˚ 5.01865˚ 0 nm 66 nm 326° / 326° FLORO

Altitude Profile

Advertisement - Login to hide

ENSG

Details ICAO ENSG (SOG)
Name SOGNDAL Haukasen
Region Norway
Timezone Europe/Oslo (UTC+1.0)
Stats Elevation 1,633 ft / 498 m (AMSL)
Location 61.155792° 7.136278°
Runways 1
Magnetic Variation 1.669° E

METAR

ENSG 131050Z 06008KT 9999 VCSH FEW008 SCT034 VV100 M08/M08 Q0984 RMK WIND 3806FT 10015KT

Decode

TAF

Not found

Departure Runways

ID Width Length Bearing (true) Bearing (mag) Surface Threshold Offset Overrun Length
06 90 ft / 27 m 3,631 ft / 1,107 m 59.27° 57.60° Asphalt 550 ft / 168 m 0 ft / 0 m
24 90 ft / 27 m 3,631 ft / 1,107 m 239.29° 237.62° Asphalt 680 ft / 207 m 0 ft / 0 m

ENFL

Details ICAO ENFL (FRO)
Name FLORO
Region Norway
Timezone Europe/Oslo (UTC+1.0)
Stats Elevation 37 ft / 11 m (AMSL)
Location 61.582653° 5.018651°
Runways 1
Magnetic Variation 0.683° E

METAR

ENFL 131120Z 11019KT 9999 -RA FEW015 BKN025 04/M01 Q0980

Decode

TAF

Not found

Destination Runways

ID Width Length Bearing (true) Bearing (mag) Surface Threshold Offset Overrun Length
07 98 ft / 30 m 4,131 ft / 1,259 m 70.86° 70.18° Asphalt 112 ft / 34 m 0 ft / 0 m
25 98 ft / 30 m 4,131 ft / 1,259 m 250.87° 250.19° Asphalt 66 ft / 20 m 0 ft / 0 m

Approach Navaids

Runway Type Ident Frequency Range Bearing (true) Bearing (mag) Slope Elevation
07 Localiser FL 108.90 MHz 18 nm / 33 km 70.88° 70.20° - 37 ft / 11 m (AMSL)

Popular Alternatives